Time;durP1;ratioP1;P1;durP2;ratioP2;P2;SDS_P1;SDS_P2;PMS_P1;PMS_P2;Temp;Humidity;BMP_temperature;BMP_pressure;BME280_temperature;BME280_humidity;BME280_pressure;Samples;Min_cycle;Max_cycle;Signal;HPM_P1;HPM_P2
2023/01/05 00:01:03;;;;;;;28.38;9.25;;;;;;;10.58;100.00;163330.00;5049136;28;20120;-63
2023/01/05 00:03:29;;;;;;;34.03;10.05;;;;;;;10.58;100.00;163330.00;5050527;28;20511;-65
2023/01/05 00:06:01;;;;;;;30.60;6.70;;;;;;;10.57;100.00;163327.28;5049310;28;20037;-65
2023/01/05 00:08:27;;;;;;;28.20;8.85;;;;;;;10.55;100.00;163323.25;5049999;28;20032;-65
2023/01/05 00:24:32;;;;;;;35.45;8.07;;;;;;;10.42;100.00;163289.50;5054349;28;20036;-63
2023/01/05 00:26:57;;;;;;;29.25;9.05;;;;;;;10.37;100.00;163276.03;5052942;28;20045;-63
2023/01/05 00:29:22;;;;;;;30.05;8.65;;;;;;;10.36;100.00;163273.25;5054046;28;20468;-63
2023/01/05 00:31:48;;;;;;;22.98;7.28;;;;;;;10.35;100.00;163270.56;5052535;28;20052;-64
2023/01/05 00:34:13;;;;;;;37.03;10.60;;;;;;;10.33;100.00;163265.16;5053968;28;20025;-64
2023/01/05 00:36:39;;;;;;;28.45;8.40;;;;;;;10.40;100.00;163282.78;5052515;28;20037;-63
2023/01/05 00:39:05;;;;;;;30.08;7.88;;;;;;;10.46;100.00;163300.28;5053734;28;20029;-63
2023/01/05 00:41:30;;;;;;;25.33;7.90;;;;;;;10.46;100.00;163300.28;5052660;28;20482;-63
2023/01/05 00:43:56;;;;;;;33.85;9.57;;;;;;;10.48;100.00;163304.38;5054166;28;20029;-63
2023/01/05 00:46:21;;;;;;;37.92;9.45;;;;;;;10.44;100.00;163294.91;5051902;28;20041;-63
2023/01/05 00:48:46;;;;;;;34.65;9.80;;;;;;;10.45;100.00;163297.63;5054107;28;20021;-62
2023/01/05 00:51:12;;;;;;;34.15;8.60;;;;;;;10.50;100.00;163309.72;5052150;28;20454;-62
2023/01/05 00:53:37;;;;;;;25.80;7.78;;;;;;;10.45;100.00;163297.63;5053473;28;20029;-64
2023/01/05 00:56:02;;;;;;;26.65;8.88;;;;;;;10.44;100.00;163294.91;5052370;28;20041;-64
2023/01/05 00:58:28;;;;;;;37.15;9.60;;;;;;;10.40;100.00;163284.09;5053765;28;20021;-63
2023/01/05 01:00:53;;;;;;;28.58;9.05;;;;;;;10.46;100.00;163300.28;5051901;28;20041;-63
2023/01/05 01:03:18;;;;;;;39.50;10.23;;;;;;;10.44;100.00;163293.53;5052776;28;20103;-63
2023/01/05 01:05:44;;;;;;;33.08;8.35;;;;;;;10.44;100.00;163294.91;5050975;28;20052;-63
2023/01/05 01:08:09;;;;;;;33.55;8.35;;;;;;;10.43;100.00;163292.22;5051925;28;20472;-63
2023/01/05 01:10:38;;;;;;;27.27;9.38;;;;;;;10.43;100.00;163292.22;5050851;28;20021;-63
2023/01/05 01:13:04;;;;;;;31.98;8.18;;;;;;;10.44;100.00;163294.91;5052135;28;20112;-64
2023/01/05 01:15:29;;;;;;;39.35;9.38;;;;;;;10.45;100.00;163297.63;5050463;28;20024;-63
2023/01/05 01:17:54;;;;;;;28.98;9.70;;;;;;;10.41;100.00;163286.81;5052235;28;20039;-64
2023/01/05 01:20:20;;;;;;;36.33;10.75;;;;;;;10.39;100.00;163281.38;5051713;28;20025;-63
2023/01/05 01:22:45;;;;;;;43.25;9.95;;;;;;;10.37;100.00;163274.66;5050374;28;20037;-63
2023/01/05 01:25:10;;;;;;;31.23;9.43;;;;;;;10.32;100.00;163262.44;5051964;28;20032;-64
2023/01/05 01:27:36;;;;;;;31.77;11.18;;;;;;;10.36;100.00;163273.25;5050729;28;20037;-65
2023/01/05 01:30:01;;;;;;;44.28;9.45;;;;;;;10.36;100.00;163273.25;5051772;28;20144;-65
2023/01/05 01:32:26;;;;;;;36.17;10.70;;;;;;;10.29;100.00;163255.72;5050457;28;20037;-65
2023/01/05 01:34:53;;;;;;;28.52;9.13;;;;;;;10.27;100.00;163248.97;5051805;28;20024;-65
2023/01/05 01:37:19;;;;;;;30.15;7.95;;;;;;;10.24;100.00;163242.22;5049964;28;20111;-65
2023/01/05 01:39:44;;;;;;;30.45;6.68;;;;;;;10.28;100.00;163251.66;5051930;28;20025;-64
2023/01/05 01:42:14;;;;;;;37.30;8.13;;;;;;;10.31;100.00;163261.13;5050131;28;20389;-64
2023/01/05 01:44:52;;;;;;;25.90;7.93;;;;;;;10.29;100.00;163254.38;5051452;28;20029;-65
2023/01/05 01:47:21;;;;;;;34.05;8.57;;;;;;;10.27;100.00;163248.97;5050375;28;20037;-65
2023/01/05 01:49:47;;;;;;;33.88;9.75;;;;;;;10.24;100.00;163240.91;5051590;28;20488;-65
2023/01/05 01:52:13;;;;;;;36.40;10.30;;;;;;;10.19;100.00;163227.38;5049613;28;20454;-65
2023/01/05 01:54:39;;;;;;;28.05;7.78;;;;;;;10.16;100.00;163221.94;5051675;28;20025;-64
2023/01/05 01:57:04;;;;;;;30.13;9.07;;;;;;;10.14;100.00;163215.22;5049885;28;20440;-65
2023/01/05 01:59:30;;;;;;;25.77;8.48;;;;;;;10.12;100.00;163211.19;5051532;28;20029;-65
2023/01/05 02:01:59;;;;;;;42.00;7.28;;;;;;;10.15;100.00;163217.91;5050104;28;20045;-65
2023/01/05 02:04:25;;;;;;;38.33;10.85;;;;;;;10.20;100.00;163230.06;5016336;28;1025270;-64
2023/01/05 02:06:52;;;;;;;39.05;9.13;;;;;;;10.21;100.00;163232.78;5050587;28;20045;-63
2023/01/05 02:09:17;;;;;;;33.67;8.93;;;;;;;10.20;100.00;163230.06;5052298;28;20055;-64
2023/01/05 02:12:30;;;;;;;31.42;10.02;;;;;;;10.12;100.00;163211.19;5050839;28;20045;-64
2023/01/05 02:15:11;;;;;;;35.17;12.35;;;;;;;10.11;100.00;163208.47;5049311;28;20547;-65
2023/01/05 02:17:44;;;;;;;40.17;10.50;;;;;;;10.06;100.00;163195.00;5050674;28;20041;-65
2023/01/05 02:20:31;;;;;;;34.08;9.85;;;;;;;10.04;100.00;163189.59;5052158;28;20028;-64
2023/01/05 02:23:08;;;;;;;33.28;10.10;;;;;;;10.04;100.00;163189.59;5050831;28;20072;-64
2023/01/05 02:26:08;;;;;;;48.22;11.45;;;;;;;10.01;100.00;163181.53;5050565;28;20060;-65
2023/01/05 02:29:06;;;;;;;40.17;7.05;;;;;;;10.03;100.00;163186.88;5051939;28;20051;-64
2023/01/05 02:31:39;;;;;;;42.93;9.60;;;;;;;9.91;100.00;163154.50;5050587;28;20041;-63
2023/01/05 02:34:20;;;;;;;33.55;9.50;;;;;;;9.95;100.00;163165.28;5051071;28;20029;-63
2023/01/05 02:37:01;;;;;;;24.73;9.32;;;;;;;9.88;100.00;163146.41;5050296;28;20135;-63
2023/01/05 02:39:33;;;;;;;40.10;11.52;;;;;;;9.90;100.00;163151.81;5051585;28;20028;-62
2023/01/05 02:42:21;;;;;;;37.28;8.10;;;;;;;9.83;100.00;163135.63;5050416;28;20040;-62
2023/01/05 02:44:46;;;;;;;40.90;9.90;;;;;;;9.72;100.00;163105.91;5051572;28;20472;-63
2023/01/05 02:47:24;;;;;;;34.47;9.85;;;;;;;9.74;100.00;163111.34;5050070;28;20048;-63
2023/01/05 02:49:54;;;;;;;23.27;9.02;;;;;;;9.71;100.00;163101.91;5051657;28;20033;-63
2023/01/05 02:52:20;;;;;;;46.78;10.32;;;;;;;9.71;100.00;163103.25;5049534;28;20081;-63
2023/01/05 02:54:51;;;;;;;33.08;9.02;;;;;;;9.66;100.00;163089.75;5051455;28;20108;-63
2023/01/05 02:57:45;;;;;;;34.50;9.35;;;;;;;9.76;100.00;163116.75;5051064;28;20044;-63
2023/01/05 03:00:10;;;;;;;34.13;8.48;;;;;;;9.67;100.00;163092.44;5051075;28;20090;-63
2023/01/05 03:02:39;;;;;;;47.65;10.43;;;;;;;9.68;100.00;163095.16;5049679;28;20067;-63
2023/01/05 03:05:11;;;;;;;30.15;8.27;;;;;;;9.75;100.00;163114.03;5050837;28;20028;-63
2023/01/05 03:07:41;;;;;;;41.60;10.27;;;;;;;9.71;100.00;163103.25;5050040;28;20132;-63
2023/01/05 03:15:42;;;;;;;32.13;9.90;;;;;;;9.73;100.00;163107.31;5049505;28;20617;-61
2023/01/05 03:18:15;;;;;;;37.63;11.00;;;;;;;9.78;100.00;163122.16;5051047;28;20029;-63
2023/01/05 03:20:45;;;;;;;31.35;10.07;;;;;;;9.75;100.00;163114.03;5049459;28;20044;-63
2023/01/05 03:37:49;;;;;;;48.88;10.70;;;;;;;9.75;100.00;163114.03;5049274;28;20044;-64
2023/01/05 03:40:26;;;;;;;44.28;12.75;;;;;;;9.62;100.00;163078.97;5055523;28;20059;-64
2023/01/05 03:42:53;;;;;;;46.10;10.77;;;;;;;9.60;100.00;163073.56;5049291;28;20052;-64
2023/01/05 03:45:21;;;;;;;49.30;13.98;;;;;;;9.61;100.00;163076.28;5049233;28;20596;-64
2023/01/05 03:47:46;;;;;;;26.50;9.55;;;;;;;9.60;100.00;163073.56;5071122;28;20032;-64
2023/01/05 03:50:12;;;;;;;38.33;11.98;;;;;;;9.64;100.00;163085.72;5069912;28;20020;-66
2023/01/05 03:52:37;;;;;;;40.33;9.82;;;;;;;9.64;100.00;163084.38;5069267;28;20051;-62
2023/01/05 03:55:02;;;;;;;41.00;10.85;;;;;;;9.70;100.00;163100.56;5070507;28;20024;-62
2023/01/05 03:57:28;;;;;;;34.72;11.27;;;;;;;9.64;100.00;163085.72;5069060;28;20466;-63
2023/01/05 03:59:53;;;;;;;42.30;9.88;;;;;;;9.68;100.00;163095.16;5070471;28;20032;-63
2023/01/05 04:02:18;;;;;;;37.67;10.88;;;;;;;9.67;100.00;163092.44;5068930;28;20047;-63
2023/01/05 04:04:44;;;;;;;39.20;9.63;;;;;;;9.62;100.00;163078.97;5070450;28;20522;-64
2023/01/05 04:07:09;;;;;;;28.95;9.70;;;;;;;9.64;100.00;163084.38;5068991;28;20036;-61
2023/01/05 04:09:34;;;;;;;38.75;9.20;;;;;;;9.67;100.00;163093.81;5070250;28;20024;-63
2023/01/05 04:12:00;;;;;;;28.48;10.23;;;;;;;9.70;100.00;163100.56;5068683;28;20079;-62
2023/01/05 04:14:25;;;;;;;36.65;10.75;;;;;;;9.68;100.00;163095.16;5070269;28;20028;-62
2023/01/05 04:16:50;;;;;;;44.47;8.43;;;;;;;9.56;100.00;163062.78;5068860;28;20040;-62
2023/01/05 04:19:16;;;;;;;36.28;9.82;;;;;;;9.47;100.00;163041.22;5069843;28;20472;-62
2023/01/05 04:21:41;;;;;;;44.72;10.85;;;;;;;9.50;100.00;163049.28;5068776;28;20461;-62
2023/01/05 04:24:09;;;;;;;31.15;9.18;;;;;;;9.52;100.00;163053.34;5070195;28;20020;-62
2023/01/05 04:26:34;;;;;;;47.50;11.45;;;;;;;9.55;100.00;163060.09;5068721;28;20052;-62
2023/01/05 04:29:00;;;;;;;31.90;9.68;;;;;;;9.60;100.00;163074.94;5070420;28;20028;-62
2023/01/05 04:31:25;;;;;;;38.30;11.30;;;;;;;9.48;100.00;163043.91;5068875;28;20044;-63
2023/01/05 04:33:50;;;;;;;48.90;10.55;;;;;;;9.45;100.00;163035.81;5069984;28;20039;-63
2023/01/05 04:36:16;;;;;;;29.05;8.52;;;;;;;9.47;100.00;163041.22;5068264;28;20040;-62
2023/01/05 04:38:41;;;;;;;33.03;12.32;;;;;;;9.44;100.00;163033.09;5070350;28;20039;-63
2023/01/05 04:41:06;;;;;;;42.88;10.07;;;;;;;9.50;100.00;163049.28;5068468;28;20024;-63
2023/01/05 04:43:32;;;;;;;38.63;9.77;;;;;;;9.49;100.00;163046.56;5070088;28;20063;-63
2023/01/05 04:45:57;;;;;;;37.05;11.07;;;;;;;9.53;100.00;163057.38;5068784;28;20025;-62
2023/01/05 04:48:23;;;;;;;30.58;9.27;;;;;;;9.62;100.00;163078.97;5070055;28;20031;-63
2023/01/05 04:50:53;;;;;;;40.03;9.00;;;;;;;9.68;100.00;163095.16;5069437;28;20479;-64
2023/01/05 04:53:18;;;;;;;43.20;12.63;;;;;;;9.78;100.00;163122.16;5068592;28;20079;-63
2023/01/05 04:55:44;;;;;;;31.75;7.45;;;;;;;9.79;100.00;163124.81;5064296;28;20021;-64
2023/01/05 04:58:10;;;;;;;23.70;7.47;;;;;;;9.86;100.00;163142.38;5051551;28;20098;-64
2023/01/05 05:00:35;;;;;;;24.58;7.95;;;;;;;9.88;100.00;163146.41;5053864;28;20025;-64
2023/01/05 05:03:01;;;;;;;52.78;10.68;;;;;;;9.90;100.00;163151.81;5051995;28;20163;-64
2023/01/05 05:05:26;;;;;;;36.75;10.52;;;;;;;9.82;100.00;163132.94;5053207;28;20032;-64
2023/01/05 05:07:52;;;;;;;34.33;9.23;;;;;;;9.79;100.00;163123.47;5052084;28;20051;-64
2023/01/05 05:10:17;;;;;;;37.85;9.38;;;;;;;9.81;100.00;163130.22;5053193;28;20037;-64
2023/01/05 05:12:43;;;;;;;23.23;7.78;;;;;;;9.74;100.00;163111.34;5062668;28;20495;-65
2023/01/05 05:15:09;;;;;;;37.30;9.07;;;;;;;9.84;100.00;163138.34;5061978;28;20017;-65
2023/01/05 05:17:35;;;;;;;39.00;11.65;;;;;;;9.82;100.00;163132.94;5051950;28;20049;-65
2023/01/05 05:20:00;;;;;;;31.67;8.35;;;;;;;9.81;100.00;163130.22;5053054;28;20380;-65
2023/01/05 05:22:26;;;;;;;33.70;8.40;;;;;;;9.86;100.00;163141.03;5054801;28;20044;-65
2023/01/05 05:24:52;;;;;;;34.33;10.25;;;;;;;9.87;100.00;163143.69;5060156;28;20051;-65
2023/01/05 05:27:17;;;;;;;23.75;6.88;;;;;;;9.88;100.00;163147.78;5053372;28;20032;-65
2023/01/05 05:29:42;;;;;;;25.80;9.68;;;;;;;9.91;100.00;163155.84;5053300;28;20025;-66
2023/01/05 05:32:08;;;;;;;29.85;8.23;;;;;;;9.88;100.00;163147.78;5051587;28;20044;-64
2023/01/05 05:34:33;;;;;;;28.25;7.13;;;;;;;9.97;100.00;163170.69;5052755;28;20036;-64
2023/01/05 05:36:59;;;;;;;27.75;9.82;;;;;;;9.91;100.00;163155.84;5055882;28;20419;-64
2023/01/05 05:39:24;;;;;;;32.80;10.00;;;;;;;9.93;100.00;163161.25;5070798;28;20024;-64
2023/01/05 05:41:49;;;;;;;31.00;8.68;;;;;;;9.93;100.00;163159.94;5071208;28;20040;-64
2023/01/05 05:44:15;;;;;;;24.83;7.00;;;;;;;9.90;100.00;163151.81;5072995;28;20084;-64
2023/01/05 05:46:40;;;;;;;28.98;9.70;;;;;;;9.84;100.00;163138.34;5071398;28;20041;-63
2023/01/05 05:49:07;;;;;;;42.60;7.85;;;;;;;9.84;100.00;163138.34;5072364;28;20020;-63
2023/01/05 05:51:32;;;;;;;32.70;8.02;;;;;;;9.91;100.00;163154.50;5071112;28;20534;-63
2023/01/05 05:53:58;;;;;;;35.58;10.30;;;;;;;9.86;100.00;163141.03;5052968;28;20028;-63
2023/01/05 05:56:23;;;;;;;31.48;12.75;;;;;;;9.93;100.00;163159.94;5050830;28;20522;-66
2023/01/05 05:58:48;;;;;;;27.55;7.85;;;;;;;9.94;100.00;163163.97;5052602;28;20036;-67
2023/01/05 06:01:14;;;;;;;28.85;8.27;;;;;;;9.96;100.00;163168.00;5050995;28;20468;-66
2023/01/05 06:03:39;;;;;;;31.73;9.55;;;;;;;9.99;100.00;163176.09;5052128;28;20045;-68
2023/01/05 06:06:05;;;;;;;31.35;7.65;;;;;;;10.00;100.00;163178.81;5050988;28;20036;-64
2023/01/05 06:08:30;;;;;;;42.22;9.85;;;;;;;9.94;100.00;163162.63;5051194;28;20035;-63
2023/01/05 06:10:56;;;;;;;34.15;7.70;;;;;;;9.95;100.00;163165.28;5050687;28;20382;-63
2023/01/05 06:13:22;;;;;;;27.63;7.65;;;;;;;9.91;100.00;163154.50;5052428;28;20078;-63
2023/01/05 06:15:48;;;;;;;36.95;11.35;;;;;;;9.99;100.00;163177.44;5050896;28;20423;-59
2023/01/05 06:18:15;;;;;;;27.30;8.63;;;;;;;10.02;100.00;163182.84;5051702;28;20037;-59
2023/01/05 06:20:40;;;;;;;25.67;9.73;;;;;;;10.00;100.00;163178.81;5051167;28;20033;-59
2023/01/05 06:23:06;;;;;;;27.90;9.02;;;;;;;9.99;100.00;163176.09;5051720;28;20028;-59
2023/01/05 06:25:32;;;;;;;22.20;9.05;;;;;;;9.95;100.00;163165.28;5049839;28;20031;-59
2023/01/05 06:27:57;;;;;;;38.45;8.73;;;;;;;10.01;100.00;163181.53;5051773;28;20024;-59
2023/01/05 06:30:23;;;;;;;28.52;7.82;;;;;;;9.93;100.00;163159.94;5049990;28;20032;-58
2023/01/05 06:32:48;;;;;;;42.55;12.00;;;;;;;9.89;100.00;163149.09;5051678;28;20025;-59
2023/01/05 06:35:14;;;;;;;28.88;9.85;;;;;;;9.76;100.00;163116.75;5051601;28;20025;-59
2023/01/05 06:37:39;;;;;;;32.45;9.07;;;;;;;9.74;100.00;163111.34;5049189;28;20138;-59
2023/01/05 06:40:05;;;;;;;33.30;9.82;;;;;;;9.64;100.00;163084.38;5051318;28;20024;-59
2023/01/05 06:42:31;;;;;;;30.85;8.18;;;;;;;9.66;100.00;163089.75;5050402;28;20690;-59
2023/01/05 06:44:57;;;;;;;49.17;11.38;;;;;;;9.68;100.00;163095.16;5052095;28;20017;-59
2023/01/05 06:47:22;;;;;;;48.90;10.07;;;;;;;9.64;100.00;163084.38;5049893;28;20041;-59
2023/01/05 06:49:48;;;;;;;19.35;8.90;;;;;;;9.57;100.00;163065.50;5051914;28;20028;-59
2023/01/05 06:52:13;;;;;;;36.20;9.95;;;;;;;9.57;100.00;163066.81;5050057;28;20037;-59
2023/01/05 06:54:38;;;;;;;32.10;8.18;;;;;;;9.53;100.00;163057.38;5051246;28;20534;-59
2023/01/05 06:57:05;;;;;;;40.33;10.15;;;;;;;9.44;100.00;163033.09;5049903;28;20041;-59
2023/01/05 06:59:31;;;;;;;33.85;10.48;;;;;;;9.44;100.00;163033.09;5051507;28;20021;-59
2023/01/05 07:01:56;;;;;;;31.88;10.85;;;;;;;9.41;100.00;163023.66;5047604;28;20041;-59
2023/01/05 07:04:21;;;;;;;32.00;10.50;;;;;;;9.45;100.00;163035.81;5050928;28;20560;-59
2023/01/05 07:06:47;;;;;;;26.88;7.53;;;;;;;9.44;100.00;163033.09;5049678;28;20128;-59
2023/01/05 07:09:12;;;;;;;29.42;8.52;;;;;;;9.50;100.00;163047.94;5050746;28;20435;-59
2023/01/05 07:11:37;;;;;;;27.50;7.93;;;;;;;9.58;100.00;163068.16;5049299;28;20048;-59
2023/01/05 07:14:03;;;;;;;32.63;10.10;;;;;;;9.56;100.00;163062.78;5050745;28;20025;-59
2023/01/05 07:16:28;;;;;;;37.47;8.38;;;;;;;9.61;100.00;163076.28;5050065;28;20040;-59
2023/01/05 07:18:53;;;;;;;38.08;7.47;;;;;;;9.65;100.00;163087.03;5050169;28;20086;-59
2023/01/05 07:21:19;;;;;;;36.78;8.95;;;;;;;9.68;100.00;163095.16;5049231;28;20503;-59
2023/01/05 07:23:44;;;;;;;28.10;8.65;;;;;;;9.67;100.00;163093.81;5051097;28;20028;-59
2023/01/05 07:26:09;;;;;;;24.30;9.23;;;;;;;9.71;100.00;163103.25;5049078;28;20041;-59
2023/01/05 07:28:36;;;;;;;33.33;8.00;;;;;;;9.72;100.00;163105.91;5051110;28;20020;-58
2023/01/05 07:31:02;;;;;;;36.45;10.23;;;;;;;9.76;100.00;163115.38;5049126;28;20033;-59
2023/01/05 07:33:27;;;;;;;23.20;9.05;;;;;;;9.77;100.00;163119.44;5050335;28;20032;-59
2023/01/05 07:35:53;;;;;;;41.83;10.13;;;;;;;9.86;100.00;163142.38;5049225;28;20461;-59
2023/01/05 07:38:18;;;;;;;31.83;8.98;;;;;;;9.76;100.00;163115.38;5050547;28;20438;-59
2023/01/05 07:40:43;;;;;;;24.48;7.47;;;;;;;9.76;100.00;163116.75;5049148;28;20033;-59
2023/01/05 07:43:09;;;;;;;14.73;5.93;;;;;;;9.78;100.00;163120.78;5050770;28;20487;-58
2023/01/05 07:45:34;;;;;;;27.20;6.53;;;;;;;9.73;100.00;163108.63;5049321;28;20074;-58
2023/01/05 07:48:01;;;;;;;24.40;8.35;;;;;;;9.75;100.00;163114.03;5050142;28;20025;-59
2023/01/05 07:50:26;;;;;;;37.17;13.13;;;;;;;9.75;100.00;163112.72;5048754;28;20028;-58
2023/01/05 07:52:52;;;;;;;35.08;10.23;;;;;;;9.75;100.00;163114.03;5050724;28;20029;-58
2023/01/05 07:55:17;;;;;;;30.70;10.15;;;;;;;9.80;100.00;163127.50;5048554;28;20257;-54
2023/01/05 07:57:42;;;;;;;35.63;12.75;;;;;;;9.82;100.00;163132.94;5049073;28;20480;-58
2023/01/05 08:00:09;;;;;;;31.75;8.73;;;;;;;9.78;100.00;163122.16;5048912;28;20390;-58
2023/01/05 08:02:34;;;;;;;24.48;8.02;;;;;;;9.75;100.00;163112.72;5047265;28;20083;-59
2023/01/05 08:05:00;;;;;;;34.25;8.25;;;;;;;9.71;100.00;163103.25;5049302;28;20469;-59
2023/01/05 08:07:25;;;;;;;28.98;8.82;;;;;;;9.71;100.00;163101.91;5062788;28;20334;-59
2023/01/05 08:13:58;;;;;;;25.98;8.45;;;;;;;9.62;100.00;163078.97;5049294;28;20463;-58
2023/01/05 08:15:20;;;;;;;34.33;8.60;;;;;;;9.62;100.00;163078.97;5047568;28;20029;-58
2023/01/05 08:17:45;;;;;;;33.67;10.57;;;;;;;9.66;100.00;163089.75;5048757;28;20102;-58
2023/01/05 08:20:10;;;;;;;30.88;9.32;;;;;;;9.62;100.00;163078.97;5049314;28;20025;-59
2023/01/05 08:22:35;;;;;;;39.28;8.98;;;;;;;9.74;100.00;163111.34;5048265;28;20503;-59
2023/01/05 08:25:01;;;;;;;43.25;12.82;;;;;;;9.68;100.00;163095.16;5049316;28;20387;-59
2023/01/05 08:27:27;;;;;;;24.80;8.27;;;;;;;9.71;100.00;163103.25;5048105;28;20059;-59
2023/01/05 08:29:52;;;;;;;37.85;9.65;;;;;;;9.77;100.00;163119.44;5049873;28;20029;-58
2023/01/05 08:32:17;;;;;;;46.67;8.73;;;;;;;9.76;100.00;163116.75;5051787;28;20114;-58
2023/01/05 08:34:42;;;;;;;36.20;7.38;;;;;;;9.80;100.00;163127.50;5052016;28;20036;-59
2023/01/05 08:37:08;;;;;;;27.75;11.00;;;;;;;9.79;100.00;163123.47;5052392;28;20510;-59
2023/01/05 08:39:34;;;;;;;23.15;7.20;;;;;;;9.81;100.00;163130.22;5053852;28;20387;-58
2023/01/05 08:42:00;;;;;;;37.47;10.57;;;;;;;9.94;100.00;163162.63;5052301;28;20048;-59
2023/01/05 08:44:25;;;;;;;28.95;9.05;;;;;;;9.92;100.00;163157.22;5053774;28;20021;-60
2023/01/05 08:46:50;;;;;;;39.58;8.57;;;;;;;9.91;100.00;163155.84;5052192;28;20055;-61
2023/01/05 08:49:16;;;;;;;32.88;9.93;;;;;;;9.98;100.00;163173.41;5053440;28;20021;-61
2023/01/05 08:51:41;;;;;;;30.75;9.13;;;;;;;9.93;100.00;163159.94;5052498;28;20041;-61
2023/01/05 08:54:06;;;;;;;32.53;9.45;;;;;;;9.87;100.00;163143.69;5050419;28;20029;-61
2023/01/05 08:56:32;;;;;;;38.13;10.85;;;;;;;9.88;100.00;163146.41;5052032;28;20041;-61
2023/01/05 08:59:00;;;;;;;26.92;6.93;;;;;;;9.89;100.00;163149.09;5053742;28;20028;-61
2023/01/05 09:01:26;;;;;;;34.88;9.68;;;;;;;9.82;100.00;163132.94;5051705;28;20041;-61
2023/01/05 09:03:51;;;;;;;21.23;9.30;;;;;;;9.80;100.00;163127.50;5053051;28;20072;-61
2023/01/05 09:06:16;;;;;;;30.98;9.65;;;;;;;9.88;100.00;163146.41;5052359;28;20036;-61
2023/01/05 09:08:43;;;;;;;21.02;7.80;;;;;;;9.86;100.00;163142.38;5053272;28;20506;-61
2023/01/05 09:11:11;;;;;;;24.88;7.93;;;;;;;9.88;100.00;163147.78;5051965;28;20495;-61
2023/01/05 09:13:37;;;;;;;24.47;8.57;;;;;;;9.97;100.00;163170.69;5053485;28;20020;-61
2023/01/05 09:16:12;;;;;;;32.42;10.55;;;;;;;9.94;100.00;163162.63;5052057;28;20055;-61
2023/01/05 09:18:38;;;;;;;40.83;10.18;;;;;;;9.99;100.00;163176.09;5053302;28;20032;-61
2023/01/05 09:21:05;;;;;;;30.17;8.50;;;;;;;9.97;100.00;163170.69;5051622;28;20021;-60
2023/01/05 09:23:31;;;;;;;32.22;11.88;;;;;;;9.88;100.00;163146.41;5053083;28;20024;-61
2023/01/05 09:25:56;;;;;;;24.92;9.65;;;;;;;9.93;100.00;163161.25;5053133;28;20029;-61
2023/01/05 09:28:22;;;;;;;28.95;9.40;;;;;;;9.88;100.00;163146.41;5051995;28;20043;-61
2023/01/05 09:30:47;;;;;;;46.25;12.15;;;;;;;9.98;100.00;163174.72;5051787;28;20122;-60
2023/01/05 09:33:12;;;;;;;32.00;9.35;;;;;;;9.98;100.00;163173.41;5053145;28;20545;-61
2023/01/05 09:35:38;;;;;;;45.47;12.68;;;;;;;10.00;100.00;163178.81;5051606;28;20059;-61
2023/01/05 09:38:03;;;;;;;53.78;10.32;;;;;;;10.09;100.00;163203.06;5052738;28;20032;-61
2023/01/05 09:40:33;;;;;;;35.90;10.43;;;;;;;10.09;100.00;163203.06;5049984;28;20037;-60
2023/01/05 09:42:59;;;;;;;27.88;8.18;;;;;;;10.12;100.00;163211.19;5052341;28;20516;-61
2023/01/05 09:45:27;;;;;;;34.55;8.82;;;;;;;10.14;100.00;163215.22;5050600;28;20025;-60
2023/01/05 09:47:54;;;;;;;38.25;9.98;;;;;;;10.12;100.00;163211.19;5050929;28;20031;-61
2023/01/05 09:50:23;;;;;;;56.75;12.15;;;;;;;10.22;100.00;163235.47;5050192;28;20078;-60
2023/01/05 09:52:51;;;;;;;30.25;9.10;;;;;;;10.28;100.00;163251.66;5052113;28;20048;-61
2023/01/05 09:55:19;;;;;;;31.98;9.60;;;;;;;10.28;100.00;163251.66;5052075;28;20457;-61
2023/01/05 09:57:53;;;;;;;47.35;10.05;;;;;;;10.31;100.00;163259.78;5071275;28;20037;-61
2023/01/05 10:00:21;;;;;;;25.08;7.82;;;;;;;10.34;100.00;163266.53;5070603;28;20078;-55
2023/01/05 10:03:05;;;;;;;32.80;9.15;;;;;;;10.32;100.00;163262.44;5072235;28;20044;-61
2023/01/05 10:05:40;;;;;;;26.45;8.23;;;;;;;10.32;100.00;163262.44;5071086;28;20013;-60
2023/01/05 10:08:11;;;;;;;32.03;9.18;;;;;;;10.34;100.00;163266.53;5054724;28;20025;-61
2023/01/05 10:10:45;;;;;;;20.40;10.40;;;;;;;10.35;100.00;163270.56;5048530;28;20384;-60
2023/01/05 10:13:23;;;;;;;30.67;7.90;;;;;;;10.30;100.00;163257.09;5032405;28;20036;-61
2023/01/05 10:15:52;;;;;;;38.15;8.88;;;;;;;10.39;100.00;163280.06;5030753;28;20057;-61
2023/01/05 10:18:23;;;;;;;23.00;7.35;;;;;;;10.33;100.00;163265.16;5032264;28;20025;-61
2023/01/05 10:21:02;;;;;;;31.27;9.38;;;;;;;10.38;100.00;163278.72;5030991;28;20037;-60
2023/01/05 10:23:39;;;;;;;18.15;7.70;;;;;;;10.34;100.00;163267.84;5031925;28;20104;-61
2023/01/05 10:26:20;;;;;;;21.17;7.28;;;;;;;10.43;100.00;163292.22;5030664;28;20038;-61
2023/01/05 10:29:09;;;;;;;29.25;8.88;;;;;;;10.37;100.00;163276.03;5032476;28;20025;-61
2023/01/05 10:31:44;;;;;;;28.70;9.45;;;;;;;10.36;100.00;163273.25;5030826;28;20045;-61
2023/01/05 10:34:21;;;;;;;26.33;8.35;;;;;;;10.41;100.00;163286.81;5031894;28;20057;-61
2023/01/05 10:37:07;;;;;;;32.08;9.07;;;;;;;10.39;100.00;163281.38;5029991;28;20044;-61
2023/01/05 10:39:50;;;;;;;26.98;8.30;;;;;;;10.39;100.00;163281.38;5032080;28;20033;-61
2023/01/05 10:43:02;;;;;;;30.15;9.88;;;;;;;10.34;100.00;163267.84;5030303;28;20556;-61
2023/01/05 10:45:29;;;;;;;27.45;9.90;;;;;;;10.44;100.00;163294.91;5030213;28;20064;-60
2023/01/05 10:47:55;;;;;;;36.58;10.10;;;;;;;10.41;100.00;163286.81;5031921;28;20464;-61
2023/01/05 10:50:34;;;;;;;26.23;8.77;;;;;;;10.38;100.00;163278.72;5030244;28;20029;-60
2023/01/05 10:53:08;;;;;;;23.63;6.15;;;;;;;10.40;100.00;163282.78;5031347;28;20048;-60
2023/01/05 10:55:43;;;;;;;26.40;7.20;;;;;;;10.44;100.00;163293.53;5030173;28;20037;-60
2023/01/05 10:58:24;;;;;;;32.58;9.32;;;;;;;10.48;100.00;163305.69;5031736;28;20021;-61
2023/01/05 11:00:53;;;;;;;32.60;9.73;;;;;;;10.46;100.00;163300.28;5030166;28;20150;-60
2023/01/05 11:03:23;;;;;;;;;;;;;;;10.40;100.00;163282.78;5031849;28;20125;-61
2023/01/05 11:05:49;;;;;;;27.00;9.48;;;;;;;10.66;100.00;163351.59;5030182;28;19913;-60
2023/01/05 11:08:17;;;;;;;31.25;8.52;;;;;;;10.53;100.00;163316.53;5030891;28;20032;-60
2023/01/05 11:10:59;;;;;;;;;;;;;;;10.57;100.00;163328.66;5030858;28;20033;-61
2023/01/05 11:13:32;;;;;;;20.25;6.90;;;;;;;10.58;100.00;163331.31;5030979;28;19959;-60
2023/01/05 11:16:16;;;;;;;30.13;9.40;;;;;;;10.64;100.00;163346.19;5030012;28;20073;-60
2023/01/05 11:18:56;;;;;;;33.28;10.75;;;;;;;10.64;100.00;163346.19;5031448;28;20021;-61
2023/01/05 11:21:24;;;;;;;34.78;7.65;;;;;;;10.64;100.00;163346.19;5037586;28;20037;-60
2023/01/05 11:23:52;;;;;;;25.63;9.02;;;;;;;10.63;100.00;163343.50;5051521;28;20058;-61
2023/01/05 11:26:17;;;;;;;32.30;7.68;;;;;;;10.61;100.00;163339.44;5049091;28;20091;-60
2023/01/05 11:29:11;;;;;;;20.27;7.63;;;;;;;10.67;100.00;163354.31;5050605;28;20489;-60
2023/01/05 11:31:59;;;;;;;24.75;6.88;;;;;;;10.63;100.00;163343.50;5045928;28;20041;-60
2023/01/05 11:34:40;;;;;;;31.92;9.90;;;;;;;10.70;100.00;163362.38;5050707;28;20070;-58
2023/01/05 11:37:08;;;;;;;34.80;10.55;;;;;;;10.82;100.00;163392.09;5048554;28;20051;-58
2023/01/05 11:39:45;;;;;;;29.60;7.65;;;;;;;10.79;100.00;163386.69;5050811;28;20579;-59
2023/01/05 11:42:23;;;;;;;26.77;8.10;;;;;;;10.79;100.00;163386.69;5043940;28;20416;-59
2023/01/05 11:44:48;;;;;;;35.65;9.18;;;;;;;10.85;100.00;163400.19;5030797;28;20021;-59
2023/01/05 11:47:21;;;;;;;30.30;9.25;;;;;;;10.84;100.00;163398.84;5044614;28;20052;-60
2023/01/05 11:49:47;;;;;;;39.15;9.93;;;;;;;10.79;100.00;163385.38;5050445;28;20035;-59
2023/01/05 11:52:31;;;;;;;26.58;6.43;;;;;;;10.81;100.00;163389.41;5048874;28;20499;-59
2023/01/05 11:54:56;;;;;;;26.45;6.82;;;;;;;10.75;100.00;163375.91;5049052;28;20455;-59